Time;durP1;ratioP1;P1;durP2;ratioP2;P2;SDS_P1;SDS_P2;PMS_P1;PMS_P2;Temp;Humidity;BMP_temperature;BMP_pressure;BME280_temperature;BME280_humidity;BME280_pressure;Samples;Min_cycle;Max_cycle;Signal;HPM_P1;HPM_P2
2023/11/03 00:01:57;;;;;;;6.60;2.20;;;;;;;12.69;87.93;97551.98;129998;1260;115152;-59
2023/11/03 00:05:02;;;;;;;5.10;2.30;;;;;;;12.71;87.86;97538.16;130110;1259;114708;-59
2023/11/03 00:08:05;;;;;;;4.10;2.80;;;;;;;12.74;87.84;97554.35;129715;1276;128808;-60
2023/11/03 00:11:07;;;;;;;3.60;2.40;;;;;;;12.77;87.75;97560.82;130058;1276;115171;-60
2023/11/03 00:14:11;;;;;;;7.70;3.00;;;;;;;12.80;87.57;97550.20;130064;1260;114833;-59
2023/11/03 00:17:15;;;;;;;6.00;2.30;;;;;;;12.82;87.59;97559.40;130063;1253;115387;-59
2023/11/03 00:20:18;;;;;;;5.80;2.20;;;;;;;12.86;87.30;97548.14;130033;1268;114743;-59
2023/11/03 00:23:22;;;;;;;4.20;1.90;;;;;;;12.88;87.27;97528.66;130047;1259;114811;-59
2023/11/03 00:26:25;;;;;;;9.20;2.00;;;;;;;12.91;87.23;97515.33;129811;1259;114811;-60
2023/11/03 00:29:27;;;;;;;4.20;1.70;;;;;;;12.94;87.09;97507.15;130165;1253;114800;-60
2023/11/03 00:32:30;;;;;;;7.50;2.00;;;;;;;12.98;86.85;97499.27;130106;1259;114709;-58
2023/11/03 00:35:34;;;;;;;4.10;2.00;;;;;;;13.01;86.87;97486.52;130039;1254;114766;-59
2023/11/03 00:38:37;;;;;;;6.10;1.70;;;;;;;13.04;86.77;97455.94;130009;1258;115093;-59
2023/11/03 00:41:43;;;;;;;5.00;1.60;;;;;;;13.06;86.54;97439.39;130139;1259;114705;-59
2023/11/03 00:44:45;;;;;;;2.60;1.80;;;;;;;13.10;86.27;97429.02;130131;1259;116351;-62
2023/11/03 00:47:47;;;;;;;3.70;1.80;;;;;;;13.12;86.04;97420.68;130012;1257;114629;-58
2023/11/03 00:50:49;;;;;;;5.90;2.00;;;;;;;13.15;86.17;97423.04;130130;1264;115170;-58
2023/11/03 00:53:52;;;;;;;4.00;1.60;;;;;;;13.18;85.89;97427.95;130000;1257;116229;-59
2023/11/03 00:56:54;;;;;;;2.60;1.60;;;;;;;13.21;85.79;97439.08;130017;1257;114738;-59
2023/11/03 00:59:56;;;;;;;2.40;1.60;;;;;;;13.24;85.75;97448.30;130219;1254;114775;-59
2023/11/03 01:02:59;;;;;;;3.20;1.70;;;;;;;13.26;85.71;97448.95;129931;1260;128606;-59
2023/11/03 01:06:02;;;;;;;3.10;1.70;;;;;;;13.29;85.72;97447.35;130035;1266;114725;-60
2023/11/03 01:09:04;;;;;;;4.40;1.90;;;;;;;13.31;85.58;97449.13;130027;1256;114896;-59
2023/11/03 01:12:07;;;;;;;5.30;1.80;;;;;;;13.33;85.52;97446.23;130148;1254;114795;-59
2023/11/03 01:15:12;;;;;;;3.30;1.50;;;;;;;13.35;85.53;97457.13;130166;1266;115360;-60
2023/11/03 01:18:15;;;;;;;;;;;;;;;13.37;85.38;97457.98;129985;1254;115169;-59
2023/11/03 01:21:18;;;;;;;4.30;1.70;;;;;;;13.40;85.41;97458.44;130118;1254;115222;-60
2023/11/03 01:24:21;;;;;;;5.20;1.80;;;;;;;13.42;85.37;97459.45;130072;1257;114820;-59
2023/11/03 01:27:24;;;;;;;2.50;1.80;;;;;;;13.45;85.27;97451.80;130132;1254;115169;-59
2023/11/03 01:30:27;;;;;;;4.00;1.90;;;;;;;13.49;85.38;97450.80;130292;1256;114782;-59
2023/11/03 01:33:30;;;;;;;5.40;1.60;;;;;;;13.54;85.33;97451.92;130142;1256;115209;-59
2023/11/03 01:36:35;;;;;;;3.80;1.80;;;;;;;13.57;85.49;97458.61;130155;1257;114705;-59
2023/11/03 01:39:37;;;;;;;1.70;1.50;;;;;;;13.59;85.83;97466.65;130134;1275;115157;-59
2023/11/03 01:42:39;;;;;;;3.10;1.90;;;;;;;13.58;86.18;97462.63;130018;1275;114713;-59
2023/11/03 01:45:41;;;;;;;3.30;1.80;;;;;;;13.55;86.29;97468.51;130286;1256;114716;-60
2023/11/03 01:48:43;;;;;;;3.80;2.00;;;;;;;13.52;86.38;97469.36;129692;1275;114885;-60
2023/11/03 01:51:46;;;;;;;3.50;1.70;;;;;;;13.49;86.80;97472.89;130100;1256;114855;-59
2023/11/03 01:54:49;;;;;;;6.50;2.10;;;;;;;13.45;87.29;97467.30;130041;1257;114774;-59
2023/11/03 01:57:51;;;;;;;6.10;2.00;;;;;;;13.40;87.65;97468.30;130104;1259;115250;-59
2023/11/03 02:00:54;;;;;;;7.30;2.60;;;;;;;13.34;87.75;97471.81;130134;1260;114705;-60
2023/11/03 02:03:56;;;;;;;7.90;2.80;;;;;;;13.27;88.07;97466.95;130061;1257;114732;-60
2023/11/03 02:06:58;;;;;;;9.40;2.20;;;;;;;13.21;88.36;97469.70;129995;1257;115125;-59
2023/11/03 02:10:06;;;;;;;6.60;1.90;;;;;;;13.17;88.56;97468.02;130173;1254;114789;-59
2023/11/03 02:13:12;;;;;;;3.60;2.30;;;;;;;13.13;88.90;97470.81;130023;1257;115132;-59
2023/11/03 02:16:14;;;;;;;5.30;2.20;;;;;;;13.07;89.09;97467.23;130125;1258;128983;-59
2023/11/03 02:19:16;;;;;;;8.60;2.50;;;;;;;13.03;89.27;97467.27;130054;1257;114716;-59
2023/11/03 02:22:18;;;;;;;4.00;2.20;;;;;;;12.99;89.64;97464.38;130016;1266;116331;-59
2023/11/03 02:25:20;;;;;;;4.10;2.50;;;;;;;12.95;89.80;97465.48;129813;1256;115010;-59
2023/11/03 02:28:23;;;;;;;4.20;2.10;;;;;;;12.92;89.74;97466.48;130003;1260;115216;-59
2023/11/03 02:31:26;;;;;;;4.20;2.40;;;;;;;12.89;90.06;97464.85;129961;1254;114694;-58
2023/11/03 02:34:28;;;;;;;5.40;2.40;;;;;;;12.86;90.17;97465.16;130128;1260;114747;-58
2023/11/03 02:37:30;;;;;;;2.20;1.70;;;;;;;12.84;90.53;97458.39;129888;1276;128436;-61
2023/11/03 02:40:32;;;;;;;3.90;2.40;;;;;;;12.80;90.68;97447.58;130132;1257;114766;-60
2023/11/03 02:43:34;;;;;;;4.30;2.20;;;;;;;12.75;90.83;97447.08;130181;1254;115227;-60
2023/11/03 02:46:37;;;;;;;3.20;2.20;;;;;;;12.73;91.06;97441.52;130088;1254;114725;-60
2023/11/03 02:49:39;;;;;;;4.40;2.20;;;;;;;12.69;91.38;97429.15;130015;1256;114741;-60
2023/11/03 02:52:41;;;;;;;3.50;2.40;;;;;;;12.64;91.40;97422.16;130016;1258;114753;-60
2023/11/03 02:55:44;;;;;;;3.60;2.00;;;;;;;12.59;91.78;97419.38;129796;1263;116184;-60
2023/11/03 02:58:46;;;;;;;4.80;2.20;;;;;;;12.55;91.96;97419.96;129992;1260;114772;-60
2023/11/03 03:01:48;;;;;;;5.50;2.30;;;;;;;12.53;92.23;97419.35;130112;1255;115438;-60
2023/11/03 03:04:50;;;;;;;3.80;3.40;;;;;;;12.50;92.42;97422.38;129860;1276;115135;-60
2023/11/03 03:07:52;;;;;;;6.70;2.50;;;;;;;12.47;92.84;97414.79;130030;1260;117022;-61
2023/11/03 03:10:55;;;;;;;3.90;2.50;;;;;;;12.43;92.92;97412.64;130167;1256;114722;-60
2023/11/03 03:13:59;;;;;;;6.70;3.00;;;;;;;12.39;93.02;97410.59;130030;1257;114757;-60
2023/11/03 03:17:01;;;;;;;4.10;2.40;;;;;;;12.35;93.82;97411.93;130060;1260;114804;-60
2023/11/03 03:20:05;;;;;;;5.40;3.00;;;;;;;12.28;93.82;97410.18;130052;1257;114750;-60
2023/11/03 03:23:06;;;;;;;4.90;2.80;;;;;;;12.24;93.82;97407.80;130099;1253;114787;-60
2023/11/03 03:26:09;;;;;;;4.20;3.20;;;;;;;12.20;93.86;97404.65;129961;1260;114820;-60
2023/11/03 03:29:11;;;;;;;8.60;3.00;;;;;;;12.15;94.07;97405.13;129871;1255;114910;-60
2023/11/03 03:32:13;;;;;;;3.90;3.40;;;;;;;12.11;94.07;97408.02;129942;1259;115246;-60
2023/11/03 03:35:16;;;;;;;4.40;3.00;;;;;;;12.09;94.20;97416.16;130027;1260;114677;-61
2023/11/03 03:38:20;;;;;;;5.00;3.30;;;;;;;12.07;94.42;97420.79;130010;1257;114894;-60
2023/11/03 03:41:23;;;;;;;6.60;3.30;;;;;;;12.06;94.42;97415.25;129518;1281;115376;-60
2023/11/03 03:44:25;;;;;;;6.70;4.10;;;;;;;12.04;94.99;97408.28;129595;1257;114886;-60
2023/11/03 03:47:28;;;;;;;5.50;3.60;;;;;;;12.02;94.73;97407.95;129898;1260;114965;-59
2023/11/03 03:50:30;;;;;;;8.50;3.90;;;;;;;12.00;94.68;97404.73;129791;1260;114870;-59
2023/11/03 03:53:33;;;;;;;7.40;4.20;;;;;;;12.00;94.74;97400.95;129938;1260;115299;-60
2023/11/03 03:56:35;;;;;;;6.10;3.90;;;;;;;11.98;94.73;97398.25;129714;1260;114868;-59
2023/11/03 03:59:38;;;;;;;6.40;4.30;;;;;;;11.98;94.97;97401.69;129821;1260;116598;-59
2023/11/03 04:02:40;;;;;;;5.80;4.30;;;;;;;11.98;95.01;97400.42;129588;1278;128417;-60
2023/11/03 04:05:44;;;;;;;7.50;4.20;;;;;;;11.98;95.15;97401.44;129907;1260;114984;-60
2023/11/03 04:08:46;;;;;;;10.10;4.50;;;;;;;11.99;95.21;97407.98;130095;1257;114750;-59
2023/11/03 04:11:49;;;;;;;7.70;5.20;;;;;;;11.99;95.27;97408.36;130244;1257;115087;-59
2023/11/03 04:14:51;;;;;;;9.60;4.40;;;;;;;11.99;95.34;97405.64;129941;1275;116493;-60
2023/11/03 04:17:54;;;;;;;5.70;4.90;;;;;;;11.99;95.50;97405.48;130068;1260;114728;-59
2023/11/03 04:20:56;;;;;;;7.00;5.10;;;;;;;11.99;95.57;97411.01;130194;1273;114687;-60
2023/11/03 04:23:58;;;;;;;7.80;4.30;;;;;;;12.01;95.22;97413.36;130111;1260;114797;-60
2023/11/03 04:27:02;;;;;;;7.40;4.60;;;;;;;12.02;95.57;97413.80;129935;1276;115242;-61
2023/11/03 04:30:05;;;;;;;6.80;4.30;;;;;;;12.03;95.74;97412.31;129843;1262;114625;-62
2023/11/03 04:33:07;;;;;;;9.60;4.70;;;;;;;12.04;95.86;97413.98;130148;1263;114708;-62
2023/11/03 04:36:10;;;;;;;6.40;5.10;;;;;;;12.05;95.91;97415.54;130031;1267;114654;-60
2023/11/03 04:39:12;;;;;;;5.20;4.30;;;;;;;12.05;95.70;97418.05;130081;1267;114753;-61
2023/11/03 04:42:14;;;;;;;6.60;4.70;;;;;;;12.06;96.16;97420.65;130114;1276;114705;-60
2023/11/03 04:45:17;;;;;;;6.10;4.80;;;;;;;12.05;96.25;97425.14;130053;1276;115224;-60
2023/11/03 04:48:19;;;;;;;8.90;3.70;;;;;;;12.05;96.18;97419.80;130038;1257;114704;-60
2023/11/03 04:51:22;;;;;;;6.50;3.40;;;;;;;12.04;96.09;97427.17;130066;1276;114753;-60
2023/11/03 04:54:24;;;;;;;3.70;2.30;;;;;;;12.02;96.05;97444.05;130201;1276;114690;-60
2023/11/03 04:57:26;;;;;;;5.00;2.50;;;;;;;11.98;95.62;97453.04;130096;1267;114718;-60
2023/11/03 05:00:28;;;;;;;2.40;2.10;;;;;;;11.94;95.77;97460.55;130066;1264;114705;-60
2023/11/03 05:03:31;;;;;;;3.60;2.20;;;;;;;11.90;95.53;97463.65;130075;1258;114712;-61
2023/11/03 05:06:34;;;;;;;3.80;2.50;;;;;;;11.84;95.83;97464.17;129971;1258;115253;-59
2023/11/03 05:09:37;;;;;;;5.00;2.40;;;;;;;11.80;95.67;97463.34;130039;1259;115087;-59
2023/11/03 05:12:39;;;;;;;5.20;2.60;;;;;;;11.76;95.66;97463.60;130051;1256;115366;-59
2023/11/03 05:15:41;;;;;;;2.90;2.60;;;;;;;11.72;95.62;97467.05;130005;1254;114815;-59
2023/11/03 05:18:43;;;;;;;3.40;2.70;;;;;;;11.69;95.91;97474.44;129731;1260;114821;-60
2023/11/03 05:21:45;;;;;;;6.40;2.60;;;;;;;11.67;96.15;97476.10;130013;1257;114773;-59
2023/11/03 05:24:48;;;;;;;5.10;2.90;;;;;;;11.63;95.90;97468.08;130081;1254;114767;-59
2023/11/03 05:27:50;;;;;;;4.70;3.10;;;;;;;11.61;95.98;97471.64;129987;1260;114741;-59
2023/11/03 05:30:52;;;;;;;3.20;2.80;;;;;;;11.60;96.02;97464.66;129662;1276;114898;-60
2023/11/03 05:33:54;;;;;;;6.60;3.70;;;;;;;11.57;95.95;97448.67;130114;1256;114692;-59
2023/11/03 05:36:56;;;;;;;5.60;4.80;;;;;;;11.56;95.59;97447.73;130062;1257;114800;-59
2023/11/03 05:39:59;;;;;;;5.30;4.30;;;;;;;11.52;96.04;97451.79;130022;1267;114808;-59
2023/11/03 05:43:01;;;;;;;6.10;3.70;;;;;;;11.49;96.14;97450.70;129895;1260;114850;-59
2023/11/03 05:46:04;;;;;;;5.30;4.20;;;;;;;11.45;96.18;97441.46;130117;1257;114800;-59
2023/11/03 05:49:06;;;;;;;6.30;3.90;;;;;;;11.41;95.96;97414.54;130093;1276;115433;-60
2023/11/03 05:52:08;;;;;;;4.50;3.50;;;;;;;11.37;95.98;97392.41;130040;1276;114734;-60
2023/11/03 05:55:11;;;;;;;20.60;13.70;;;;;;;11.32;95.57;97378.21;129955;1257;114766;-60
2023/11/03 05:58:13;;;;;;;11.90;8.40;;;;;;;11.28;95.53;97393.69;130006;1258;115138;-60
2023/11/03 06:01:17;;;;;;;5.90;4.60;;;;;;;11.23;95.68;97428.42;129774;1262;114805;-60
2023/11/03 06:04:19;;;;;;;7.10;5.10;;;;;;;11.20;95.76;97441.19;129978;1276;128825;-60
2023/11/03 06:07:21;;;;;;;8.90;5.50;;;;;;;11.17;95.59;97425.98;129979;1268;115029;-60
2023/11/03 06:10:23;;;;;;;7.00;4.60;;;;;;;11.15;96.04;97424.08;129998;1255;114754;-60
2023/11/03 06:13:25;;;;;;;9.80;7.80;;;;;;;11.13;96.02;97426.34;129714;1257;114865;-60
2023/11/03 06:16:29;;;;;;;8.70;5.90;;;;;;;11.14;95.94;97434.35;129959;1257;115033;-60
2023/11/03 06:19:32;;;;;;;8.10;5.90;;;;;;;11.13;96.06;97445.13;130123;1257;115141;-60
2023/11/03 06:22:34;;;;;;;8.90;5.60;;;;;;;11.13;96.33;97460.67;130032;1258;114830;-60
2023/11/03 06:25:36;;;;;;;9.40;6.10;;;;;;;11.13;96.40;97458.67;130042;1257;114741;-60
2023/11/03 06:28:38;;;;;;;11.90;6.30;;;;;;;11.14;96.25;97446.11;130126;1276;115166;-60
2023/11/03 06:31:41;;;;;;;7.10;5.70;;;;;;;11.16;96.63;97443.95;130019;1276;115159;-61
2023/11/03 06:34:43;;;;;;;10.60;7.50;;;;;;;11.17;96.62;97432.40;130042;1257;114702;-61
2023/11/03 06:37:48;;;;;;;11.30;8.10;;;;;;;11.18;96.65;97435.71;130138;1276;114816;-60
2023/11/03 06:40:50;;;;;;;8.30;6.70;;;;;;;11.20;96.81;97440.21;130034;1276;114644;-60
2023/11/03 06:43:53;;;;;;;11.60;9.10;;;;;;;11.20;97.00;97447.13;130015;1276;114705;-60
2023/11/03 06:46:55;;;;;;;12.10;9.60;;;;;;;11.22;97.00;97457.31;130204;1267;114817;-60
2023/11/03 06:49:57;;;;;;;13.30;9.20;;;;;;;11.22;97.10;97467.40;130136;1254;114741;-61
2023/11/03 06:53:00;;;;;;;14.70;8.20;;;;;;;11.22;96.93;97476.73;129882;1254;114830;-61
2023/11/03 06:56:02;;;;;;;17.30;12.20;;;;;;;11.22;97.06;97484.02;130102;1255;114696;-60
2023/11/03 06:59:05;;;;;;;20.60;11.60;;;;;;;11.22;96.96;97487.47;130143;1258;115344;-61
2023/11/03 07:02:08;;;;;;;17.40;10.40;;;;;;;11.22;97.00;97487.06;130159;1257;114818;-62
2023/11/03 07:05:10;;;;;;;13.60;9.40;;;;;;;11.23;97.02;97481.84;130141;1257;115237;-61
2023/11/03 07:08:13;;;;;;;13.70;8.90;;;;;;;11.24;96.91;97477.10;130100;1275;115175;-59
2023/11/03 07:11:17;;;;;;;9.80;7.40;;;;;;;11.25;97.12;97478.25;130215;1257;114748;-60
2023/11/03 07:14:19;;;;;;;9.40;6.90;;;;;;;11.27;97.33;97494.68;130268;1257;115189;-59
2023/11/03 07:17:21;;;;;;;9.80;6.60;;;;;;;11.30;97.13;97502.32;130109;1256;114740;-60
2023/11/03 07:20:24;;;;;;;9.50;7.00;;;;;;;11.30;97.61;97503.36;130048;1254;114703;-60
2023/11/03 07:23:26;;;;;;;10.70;7.80;;;;;;;11.30;97.14;97500.96;129984;1267;128989;-59
2023/11/03 07:26:30;;;;;;;10.40;6.50;;;;;;;11.31;97.32;97499.12;130031;1257;114850;-60
2023/11/03 07:29:32;;;;;;;9.00;6.60;;;;;;;11.32;97.47;97506.14;130001;1257;114660;-60
2023/11/03 07:32:34;;;;;;;9.00;6.10;;;;;;;11.35;97.65;97513.56;130125;1260;115147;-63
2023/11/03 07:35:37;;;;;;;8.70;5.50;;;;;;;11.37;97.43;97515.10;129880;1261;114826;-61
2023/11/03 07:38:39;;;;;;;7.70;6.90;;;;;;;11.38;97.76;97515.00;130081;1267;116380;-60
2023/11/03 07:41:41;;;;;;;12.00;6.90;;;;;;;11.41;97.75;97520.34;130095;1267;114699;-61
2023/11/03 07:44:44;;;;;;;10.70;7.20;;;;;;;11.41;97.78;97515.27;130054;1257;114732;-62
2023/11/03 07:47:46;;;;;;;17.80;12.60;;;;;;;11.44;97.82;97515.17;130090;1276;115262;-61
2023/11/03 07:50:49;;;;;;;20.00;15.60;;;;;;;11.46;97.91;97513.19;130157;1275;115659;-61
2023/11/03 07:53:52;;;;;;;20.60;16.50;;;;;;;11.48;98.03;97517.48;130166;1256;114785;-60
2023/11/03 07:56:56;;;;;;;20.60;18.30;;;;;;;11.49;98.08;97511.08;130230;1257;114693;-59
2023/11/03 07:59:58;;;;;;;23.30;18.60;;;;;;;11.50;98.08;97504.94;130183;1255;114868;-61
2023/11/03 08:03:04;;;;;;;17.00;13.40;;;;;;;11.51;98.05;97504.83;130195;1270;115113;-59
2023/11/03 08:06:07;;;;;;;13.00;10.00;;;;;;;11.52;97.98;97514.95;130102;1256;114707;-60
2023/11/03 08:09:11;;;;;;;11.90;10.20;;;;;;;11.52;97.95;97510.10;130219;1256;114795;-59
2023/11/03 08:12:14;;;;;;;15.60;10.90;;;;;;;11.53;97.92;97515.71;129988;1260;114875;-60
2023/11/03 08:15:16;;;;;;;17.90;12.80;;;;;;;11.52;97.95;97525.04;130152;1267;114752;-60
2023/11/03 08:18:19;;;;;;;19.10;11.60;;;;;;;11.52;97.91;97534.60;130097;1267;114780;-60
2023/11/03 08:21:21;;;;;;;13.80;10.30;;;;;;;11.53;98.26;97535.39;130129;1257;114732;-60
2023/11/03 08:24:23;;;;;;;19.50;8.70;;;;;;;11.53;98.20;97532.50;130053;1254;114718;-61
2023/11/03 08:27:26;;;;;;;13.70;9.20;;;;;;;11.53;98.27;97525.70;129976;1257;114785;-60
2023/11/03 08:30:28;;;;;;;15.80;9.20;;;;;;;11.53;97.97;97521.43;130136;1257;115234;-60
2023/11/03 08:33:32;;;;;;;10.10;7.40;;;;;;;11.50;97.77;97514.64;130164;1257;115402;-60
2023/11/03 08:36:34;;;;;;;10.40;7.90;;;;;;;11.47;97.92;97508.67;130024;1267;128732;-60
2023/11/03 08:39:37;;;;;;;9.60;7.60;;;;;;;11.45;97.92;97509.93;130076;1257;114686;-61
2023/11/03 08:42:39;;;;;;;10.80;8.00;;;;;;;11.43;98.16;97504.90;130109;1254;114846;-60
2023/11/03 08:45:41;;;;;;;16.70;9.30;;;;;;;11.44;98.24;97506.81;130140;1257;115187;-60
2023/11/03 08:48:45;;;;;;;19.80;11.80;;;;;;;11.43;98.42;97504.04;129909;1257;114753;-60
2023/11/03 08:51:51;;;;;;;16.20;11.50;;;;;;;11.42;98.51;97491.84;129980;1258;114814;-59
2023/11/03 08:54:54;;;;;;;18.00;10.00;;;;;;;11.42;98.70;97494.81;130027;1257;128914;-59
2023/11/03 08:57:57;;;;;;;10.00;8.20;;;;;;;11.41;98.37;97489.79;130143;1275;115219;-59
2023/11/03 09:01:00;;;;;;;8.70;7.60;;;;;;;11.37;98.27;97492.78;130058;1254;114785;-60
2023/11/03 09:04:04;;;;;;;9.70;7.90;;;;;;;11.36;98.32;97487.91;130167;1264;115450;-59
2023/11/03 09:07:09;;;;;;;9.90;7.10;;;;;;;11.34;98.26;97477.43;130053;1260;114804;-61
2023/11/03 09:10:11;;;;;;;;;;;;;;;11.34;98.36;97484.02;130035;1275;128793;-61
2023/11/03 09:13:17;;;;;;;11.10;7.20;;;;;;;11.33;98.21;97483.20;130019;1276;115353;-59
2023/11/03 09:16:23;;;;;;;10.20;7.80;;;;;;;11.32;98.04;97471.50;130059;1269;114788;-59
2023/11/03 09:19:28;;;;;;;12.00;8.60;;;;;;;11.31;98.40;97467.29;130079;1276;115361;-59
2023/11/03 09:22:30;;;;;;;9.50;7.60;;;;;;;11.30;98.49;97459.34;130013;1254;114811;-60
2023/11/03 09:25:32;;;;;;;12.60;9.00;;;;;;;11.29;98.06;97459.80;130059;1257;114748;-63
2023/11/03 09:28:35;;;;;;;11.50;8.60;;;;;;;11.30;98.19;97467.41;129973;1267;114741;-59
2023/11/03 09:31:37;;;;;;;12.40;9.20;;;;;;;11.30;98.17;97467.08;130079;1267;114737;-59
2023/11/03 09:34:40;;;;;;;10.30;8.40;;;;;;;11.30;98.39;97462.96;129810;1254;115138;-59
2023/11/03 09:37:42;;;;;;;11.30;7.90;;;;;;;11.29;98.34;97459.50;130136;1257;114727;-60
2023/11/03 09:40:46;;;;;;;11.40;8.40;;;;;;;11.29;98.02;97451.99;130015;1256;115369;-60
2023/11/03 09:43:48;;;;;;;16.20;12.30;;;;;;;11.28;98.20;97450.50;130145;1257;115230;-60
2023/11/03 09:46:53;;;;;;;11.70;9.00;;;;;;;11.26;98.27;97450.33;130062;1254;115436;-59
2023/11/03 09:49:58;;;;;;;13.10;9.40;;;;;;;11.23;98.07;97446.65;129988;1276;114785;-60
2023/11/03 09:53:07;;;;;;;11.50;8.90;;;;;;;11.23;98.49;97451.30;130180;1269;114683;-60
2023/11/03 09:56:09;;;;;;;12.70;8.50;;;;;;;11.24;98.66;97447.77;129934;1256;114907;-59
2023/11/03 09:59:13;;;;;;;13.30;9.00;;;;;;;11.24;98.42;97445.98;130008;1257;114680;-59
2023/11/03 10:02:20;;;;;;;12.00;9.20;;;;;;;11.24;98.83;97440.83;130022;1257;115313;-60
2023/11/03 10:05:24;;;;;;;11.20;9.50;;;;;;;11.24;98.60;97438.55;129974;1273;115173;-59
2023/11/03 10:08:27;;;;;;;12.70;9.20;;;;;;;11.24;98.83;97429.33;130095;1276;114805;-60
2023/11/03 10:11:30;;;;;;;12.10;9.20;;;;;;;11.27;99.12;97417.13;129878;1254;114697;-67
2023/11/03 10:14:32;;;;;;;13.00;9.60;;;;;;;11.30;99.24;97402.58;130237;1257;114727;-67
2023/11/03 10:17:35;;;;;;;14.80;10.60;;;;;;;11.34;99.37;97384.86;130244;1254;114758;-66
2023/11/03 10:20:41;;;;;;;12.80;10.30;;;;;;;11.38;99.02;97380.63;130312;1254;114874;-66
2023/11/03 10:23:43;;;;;;;17.80;11.50;;;;;;;11.44;99.26;97377.28;130165;1260;114885;-66
2023/11/03 10:26:45;;;;;;;17.30;11.40;;;;;;;11.47;99.24;97372.62;130279;1269;114836;-64
2023/11/03 10:29:51;;;;;;;15.20;10.40;;;;;;;11.51;99.34;97369.13;130461;1256;114639;-68
2023/11/03 10:32:55;;;;;;;13.00;8.50;;;;;;;11.54;99.17;97362.97;130417;1257;114704;-66
2023/11/03 10:35:58;;;;;;;12.60;8.70;;;;;;;11.54;98.76;97353.88;130342;1256;115586;-67
2023/11/03 10:39:00;;;;;;;11.10;8.10;;;;;;;11.56;99.20;97344.41;130349;1257;116316;-67
2023/11/03 10:42:02;;;;;;;13.30;8.10;;;;;;;11.57;98.94;97348.77;130439;1257;115408;-66
2023/11/03 10:45:06;;;;;;;9.90;8.50;;;;;;;11.57;98.72;97350.92;130332;1257;114797;-67
2023/11/03 10:48:30;;;;;;;19.90;13.90;;;;;;;11.58;98.77;97356.56;130330;1253;114760;-66
2023/11/03 10:51:36;;;;;;;22.50;13.70;;;;;;;11.57;98.45;97361.45;129841;1260;114726;-67
2023/11/03 10:54:50;;;;;;;26.80;13.40;;;;;;;11.59;99.05;97361.99;130369;1256;128897;-66
2023/11/03 10:57:57;;;;;;;17.30;11.30;;;;;;;11.61;98.66;97361.11;130136;1254;116477;-67
2023/11/03 11:01:22;;;;;;;13.60;9.80;;;;;;;11.60;98.93;97357.34;130175;1257;114768;-68
2023/11/03 11:04:43;;;;;;;15.10;10.50;;;;;;;11.60;99.14;97356.13;130310;1257;115083;-67
2023/11/03 11:07:50;;;;;;;16.00;10.70;;;;;;;11.61;98.92;97345.89;130327;1254;114824;-66
2023/11/03 11:10:52;;;;;;;13.90;9.70;;;;;;;11.60;98.77;97340.02;130442;1255;128676;-66
2023/11/03 11:13:54;;;;;;;15.00;9.10;;;;;;;11.60;98.51;97335.09;130386;1267;114775;-67
2023/11/03 11:16:58;;;;;;;14.10;9.30;;;;;;;11.60;98.55;97337.38;130418;1256;115404;-66
2023/11/03 11:20:08;;;;;;;15.50;11.00;;;;;;;11.60;98.89;97333.88;130384;1256;114792;-66
2023/11/03 11:23:14;;;;;;;15.70;10.30;;;;;;;11.58;98.48;97332.61;130435;1267;116246;-64
2023/11/03 11:26:22;;;;;;;16.60;10.60;;;;;;;11.58;98.71;97326.00;130533;1275;114725;-66
2023/11/03 11:29:27;;;;;;;13.00;10.50;;;;;;;11.59;98.62;97316.61;130294;1257;128591;-67
2023/11/03 11:32:30;;;;;;;17.40;9.40;;;;;;;11.59;98.61;97304.25;127816;1269;3456202;-68
2023/11/03 11:35:37;;;;;;;11.80;9.20;;;;;;;11.59;98.92;97295.67;130288;1260;115169;-66
2023/11/03 11:38:41;;;;;;;19.60;9.50;;;;;;;11.54;98.27;97294.33;130250;1259;114815;-66
2023/11/03 11:41:51;;;;;;;9.80;7.90;;;;;;;11.53;98.50;97286.92;130278;1261;114725;-67
2023/11/03 11:44:53;;;;;;;9.50;8.50;;;;;;;11.54;98.84;97285.35;130172;1259;127849;-67
2023/11/03 11:47:56;;;;;;;10.90;9.30;;;;;;;11.56;98.75;97281.25;130321;1253;114776;-65
2023/11/03 11:50:58;;;;;;;13.70;8.60;;;;;;;11.59;98.68;97281.88;130356;1275;115048;-66
2023/11/03 11:54:01;;;;;;;10.60;8.40;;;;;;;11.62;98.64;97277.13;130549;1267;115334;-66
2023/11/03 11:57:07;;;;;;;12.30;8.90;;;;;;;11.62;98.52;97267.07;130440;1257;114758;-66
2023/11/03 12:00:15;;;;;;;13.20;8.10;;;;;;;11.61;98.39;97258.27;130358;1265;114700;-66
2023/11/03 12:03:18;;;;;;;14.30;10.30;;;;;;;11.63;98.81;97261.48;130290;1259;127534;-65
2023/11/03 12:06:20;;;;;;;10.80;8.50;;;;;;;11.65;98.47;97264.79;130441;1257;114756;-66
2023/11/03 12:09:22;;;;;;;12.60;8.90;;;;;;;11.66;98.52;97267.59;130382;1253;114708;-66
2023/11/03 12:12:24;;;;;;;10.60;8.70;;;;;;;11.67;98.68;97272.52;130509;1256;115112;-67
2023/11/03 12:15:26;;;;;;;11.90;8.20;;;;;;;11.67;98.33;97274.80;130381;1253;114763;-65
2023/11/03 12:18:28;;;;;;;9.30;7.70;;;;;;;11.65;98.24;97278.04;130391;1254;115396;-72
2023/11/03 12:21:31;;;;;;;10.60;8.30;;;;;;;11.60;97.96;97279.63;130365;1256;114646;-62
2023/11/03 12:24:33;;;;;;;12.00;8.80;;;;;;;11.53;98.10;97274.02;129880;1275;128834;-60
2023/11/03 12:27:37;;;;;;;11.30;8.60;;;;;;;11.47;97.84;97268.61;130590;1257;114715;-59
2023/11/03 12:30:52;;;;;;;15.00;8.10;;;;;;;11.41;97.90;97265.48;130116;1256;114722;-60
2023/11/03 12:34:03;;;;;;;10.10;8.10;;;;;;;11.35;98.38;97255.30;129894;1268;114768;-60
2023/11/03 12:37:05;;;;;;;12.10;8.90;;;;;;;11.33;98.62;97254.68;129950;1261;114729;-58
2023/11/03 12:40:20;;;;;;;12.10;9.10;;;;;;;11.32;98.43;97251.05;130105;1257;114731;-65
2023/11/03 12:43:22;;;;;;;14.40;10.70;;;;;;;11.29;98.51;97244.54;130136;1272;114786;-64
2023/11/03 12:46:25;;;;;;;15.00;9.20;;;;;;;11.26;98.99;97244.28;130128;1266;114657;-60
2023/11/03 12:49:28;;;;;;;12.90;8.80;;;;;;;11.24;98.70;97242.14;130070;1257;114869;-64
2023/11/03 12:52:33;;;;;;;12.30;8.00;;;;;;;11.23;98.77;97245.70;130175;1254;115140;-61
2023/11/03 12:55:35;;;;;;;;;;;;;;;11.20;99.11;97253.79;130219;1275;129896;-63
2023/11/03 12:58:38;;;;;;;11.50;7.70;;;;;;;11.15;98.67;97244.73;130271;1272;115209;-63
2023/11/03 13:01:41;;;;;;;10.70;6.70;;;;;;;11.11;99.00;97239.60;130140;1256;114717;-59
2023/11/03 13:04:43;;;;;;;15.20;6.80;;;;;;;11.06;98.44;97246.70;129969;1260;114772;-63
2023/11/03 13:07:59;;;;;;;11.80;7.10;;;;;;;11.00;98.12;97246.95;130108;1253;114792;-63
2023/11/03 13:11:02;;;;;;;10.90;7.10;;;;;;;10.94;98.29;97255.58;129901;1257;115056;-61
2023/11/03 13:14:04;;;;;;;16.80;9.30;;;;;;;10.89;98.30;97254.20;130243;1254;114774;-64
2023/11/03 13:17:06;;;;;;;14.10;7.60;;;;;;;10.87;98.55;97237.85;130086;1257;114778;-61
2023/11/03 13:20:14;;;;;;;12.70;7.50;;;;;;;10.83;98.33;97240.95;130178;1256;115201;-63
2023/11/03 13:23:17;;;;;;;16.40;9.60;;;;;;;10.80;98.35;97240.73;129855;1259;114809;-65
2023/11/03 13:26:21;;;;;;;14.30;8.50;;;;;;;10.78;98.36;97231.77;130078;1254;114776;-60
2023/11/03 13:29:23;;;;;;;11.60;8.50;;;;;;;10.76;98.22;97226.43;130031;1257;114725;-64
2023/11/03 13:32:26;;;;;;;19.60;13.10;;;;;;;10.73;98.54;97246.89;130073;1257;114725;-64
2023/11/03 13:35:29;;;;;;;18.60;10.00;;;;;;;10.71;98.55;97272.41;130094;1253;114785;-64
2023/11/03 13:38:32;;;;;;;12.80;7.40;;;;;;;10.66;98.38;97276.71;130072;1273;115221;-64
2023/11/03 13:41:37;;;;;;;18.40;10.40;;;;;;;10.61;98.28;97271.67;129725;1254;115113;-63
2023/11/03 13:44:40;;;;;;;17.40;11.40;;;;;;;10.56;98.40;97257.70;130055;1253;114861;-60
2023/11/03 13:47:43;;;;;;;15.90;10.60;;;;;;;10.54;98.52;97256.09;130070;1253;114728;-63
2023/11/03 13:50:45;;;;;;;25.40;11.80;;;;;;;10.52;98.24;97255.95;130046;1253;114732;-59
2023/11/03 13:53:47;;;;;;;24.70;11.10;;;;;;;10.51;98.80;97273.51;130116;1258;115386;-64
2023/11/03 13:56:50;;;;;;;20.30;11.40;;;;;;;10.49;98.48;97277.77;129747;1257;115166;-59